Custom file does not exist C:\wdisplay\webfiles\testtags.txt Borgafjälls vädersida - Nearby METAR Reports

Nearby METAR Reports

 

KSJC - San Jose, California, USA
Distance from station: KO 14km
Pivitetty: 28/09/2020 02:53
Puolipilvist
Puolipilvist
 Tuulen suunta LLU
Tuuli: LLU 7 km/h
Lmptila: 34°C
Kastepiste: 9°C
Kosteus: 21%
Ilmanpaine: 1009.1 hPa
Clouds: Puolipilvist
Visibility: 16 km
Cloud details: Few Clouds 914 m
Puolipilvist 1524 m
Puolipilvist 3048 m
2020/09/28 00:53 KSJC 280053Z 30004KT 10SM FEW030 SCT050 SCT100 34/09 A2980 RMK AO2 SLP089 HZ FEW030 HZ SCT050 T03390089 $
KNUQ - Moffett Nas/Mtn, California, USA
Distance from station: P 14km
Pivitetty: 27/09/2020 15:55
NOT Current
Enimmkseen pilvist
Enimmkseen pilvist
 Tuulen suunta calm
Tuuli: Tyynt
Lmptila: 16°C
Kastepiste: 13°C
Kosteus: 83%
Ilmanpaine: 1012.5 hPa
Clouds: Enimmkseen pilvist
Visibility: 16 km
Cloud details: Puolipilvist 579 m
Enimmkseen pilvist 732 m
Enimmkseen pilvist 945 m
2020/09/27 13:55 KNUQ 271355Z AUTO 00000KT 10SM SCT019 BKN024 BKN031 16/13 A2990 RMK AO2
 
KPAO - Palo Alto, California, USA
Distance from station: PLU 23km
Pivitetty: 28/09/2020 00:47
NOT Current
Selket
Selket
 Tuulen suunta PLU
Tuuli: PLU 17 km/h
Lmptila: 33°C
Kastepiste: 9°C
Kosteus: 23%
Ilmanpaine: 1009.8 hPa
Clouds: Selket
Visibility: 16 km
2020/09/27 22:47 KPAO 272247Z 34009KT 10SM SKC 33/09 A2982
KRHV - San Jose/Reid, California, USA
Distance from station: IKO 19km
Pivitetty: 28/09/2020 02:50
Selket
Selket
 Tuulen suunta varies
Tuuli: varies 7 km/h
Lmptila: 33°C
Kastepiste: 11°C
Kosteus: 26%
Ilmanpaine: 1009.5 hPa
Clouds: Selket
Visibility: 16 km
2020/09/28 00:50 KRHV 280050Z VRB04KT 10SM SKC 33/11 A2981
 
KOAK - Oakland, California, USA
Distance from station: PLU 50km
Pivitetty: 28/09/2020 02:53
Puolipilvist
Puolipilvist
 Tuulen suunta KO
Tuuli: KO 19 km/h
Lmptila: 36°C
Kastepiste: 7°C
Kosteus: 17%
Ilmanpaine: 1009.8 hPa
Clouds: Puolipilvist
Visibility: 16 km
Cloud details: Few Clouds 914 m
Puolipilvist 7620 m
2020/09/28 00:53 KOAK 280053Z 05010KT 10SM FEW030 SCT250 36/07 A2982 RMK AO2 SLP096 FU FEW030 T03560067
KSQL - San Carlos Airpo, California, USA
Distance from station: LU 34km
Pivitetty: 28/09/2020 02:47
Selket
Selket
 Tuulen suunta LU
Tuuli: LU 9 km/h
Lmptila: 33°C
Kastepiste: 8°C
Kosteus: 21%
Ilmanpaine: 1009.8 hPa
Clouds: Selket
Visibility: 16 km
2020/09/28 00:47 KSQL 280047Z 31005KT 10SM SKC 33/08 A2982
 
KSFO - San Francisco, California, USA
Distance from station: LU 49km
Pivitetty: 28/09/2020 02:56
Few Clouds
Few Clouds
 Tuulen suunta LLU
Tuuli: LLU 20 km/h
Lmptila: 29°C
Kastepiste: 8°C
Kosteus: 27%
Ilmanpaine: 1009.5 hPa
Clouds: Few Clouds
Visibility: 16 km
Cloud details: Few Clouds 6096 m
2020/09/28 00:56 KSFO 280056Z 30011KT 10SM FEW200 29/08 A2981 RMK AO2 SLP095 T02940078
KE16 - San Martin, California, USA
Distance from station: IKA 43km
Pivitetty: 28/09/2020 03:10
Selket
Selket
 Tuulen suunta LU
Tuuli: LU 9 km/h
Lmptila: 32°C
Kastepiste: 8°C
Kosteus: 22%
Ilmanpaine: 1010.2 hPa
Clouds: Selket
Visibility: 16 km
2020/09/28 01:10 KE16 280110Z AUTO 31005KT 10SM CLR 32/08 A2983 RMK AO2 PWINO PNO
 
KWVI - Watsonville, California, USA
Distance from station: EKA 44km
Pivitetty: 28/09/2020 02:53
Selket
Selket
 Tuulen suunta E
Tuuli: E 11 km/h
Lmptila: 23°C
Kastepiste: 14°C
Kosteus: 57%
Ilmanpaine: 1009.8 hPa
Clouds: Selket
Visibility: 16 km
2020/09/28 00:53 KWVI 280053Z AUTO 18006KT 10SM CLR 23/14 A2982 RMK AO2 SLP097 T02280144
KHAF - Half Moon Bay, California, USA
Distance from station: LLU 50km
Pivitetty: 28/09/2020 03:15
Selket
Selket
 Tuulen suunta LU
Tuuli: LU 11 km/h
Lmptila: 26°C
Kastepiste: 8°C
Kosteus: 32%
Ilmanpaine: 1009.8 hPa
Clouds: Selket
Visibility: 13 km
2020/09/28 01:15 KHAF 280115Z AUTO 31006KT 250V350 8SM CLR 26/08 A2982 RMK AO2
 
KHWD - Hayward, California, USA
Distance from station: P 44km
Pivitetty: 28/09/2020 02:54
Selket
Selket
 Tuulen suunta PKO
Tuuli: PKO 17 km/h
Lmptila: 35°C
Kastepiste: 7°C
Kosteus: 18%
Ilmanpaine: 1009.5 hPa
Clouds: Selket
Visibility: 14 km
2020/09/28 00:54 KHWD 280054Z 03009KT 9SM CLR 35/07 A2981 RMK AO2 SLP102 T03500067
KLVK - Livermore, California, USA
Distance from station: PKO 51km
Pivitetty: 28/09/2020 02:53
Selket
Selket
 Tuulen suunta IKO
Tuuli: IKO 19 km/h
Lmptila: 32°C
Kastepiste: 6°C
Kosteus: 20%
Ilmanpaine: 1010.5 hPa
Clouds: Selket
Visibility: 16 km
2020/09/28 00:53 KLVK 280053Z 07010KT 10SM CLR 32/06 A2984 RMK AO2 SLP100 T03220056